createdAt,value
2016-12-16T00:05:30.484Z,3.41
2016-12-16T00:08:24.170Z,3.41
2016-12-16T00:11:18.110Z,3.41
2016-12-16T00:14:11.862Z,3.40
2016-12-16T00:17:05.519Z,3.39
2016-12-16T00:19:59.268Z,3.38
2016-12-16T00:22:52.870Z,3.38
2016-12-16T00:25:46.639Z,3.37
2016-12-16T00:28:40.398Z,3.35
2016-12-16T00:34:27.911Z,3.30
2016-12-16T00:37:22.703Z,3.29
2016-12-16T00:43:09.102Z,3.26
2016-12-16T00:46:02.973Z,3.26
2016-12-16T00:48:56.766Z,3.25
2016-12-16T00:51:50.501Z,3.26
2016-12-16T00:54:44.255Z,3.27
2016-12-16T00:57:38.079Z,3.27
2016-12-16T01:00:31.882Z,3.26
2016-12-16T01:03:25.570Z,3.25
2016-12-16T01:06:19.456Z,3.23
2016-12-16T01:09:13.169Z,3.22
2016-12-16T01:17:55.643Z,3.20
2016-12-16T01:20:48.538Z,3.20
2016-12-16T01:29:29.650Z,3.20
2016-12-16T01:35:17.239Z,3.20
2016-12-16T01:38:11.126Z,3.20
2016-12-16T01:41:04.948Z,3.20
2016-12-16T01:46:52.690Z,3.20
2016-12-16T01:49:46.381Z,3.19
2016-12-16T01:52:39.953Z,3.18
2016-12-16T01:55:33.803Z,3.18
2016-12-16T01:58:27.524Z,3.18
2016-12-16T02:01:21.321Z,3.18
2016-12-16T02:04:15.023Z,3.17
2016-12-16T02:07:08.802Z,3.17
2016-12-16T02:10:02.512Z,3.17
2016-12-16T02:18:43.618Z,3.15
2016-12-16T02:21:37.585Z,3.16
2016-12-16T02:24:31.411Z,3.16
2016-12-16T02:27:25.245Z,3.17
2016-12-16T02:30:18.954Z,3.17
2016-12-16T02:33:12.774Z,3.17
2016-12-16T02:39:00.224Z,3.19
2016-12-16T02:41:54.097Z,3.19
2016-12-16T02:44:47.885Z,3.21
2016-12-16T02:47:41.633Z,3.22
2016-12-16T02:50:35.310Z,3.23
2016-12-16T02:53:29.912Z,3.23
2016-12-16T02:56:22.883Z,3.23
2016-12-16T02:59:16.513Z,3.24
2016-12-16T03:02:10.293Z,3.25
2016-12-16T03:05:04.045Z,3.26
2016-12-16T03:07:57.699Z,3.26
2016-12-16T03:10:51.439Z,3.27
2016-12-16T03:13:45.331Z,3.50
2016-12-16T03:16:39.142Z,3.29
2016-12-16T03:22:26.627Z,3.27
2016-12-16T03:25:20.275Z,3.27
2016-12-16T03:28:13.948Z,3.27
2016-12-16T03:39:49.028Z,3.27
2016-12-16T03:45:36.581Z,3.27
2016-12-16T03:48:30.346Z,3.25
2016-12-16T03:51:24.064Z,3.23
2016-12-16T03:54:17.808Z,3.19
2016-12-16T04:00:05.794Z,3.10
2016-12-16T04:05:52.960Z,3.00
2016-12-16T04:08:46.719Z,2.97
2016-12-16T04:11:40.469Z,2.94
2016-12-16T04:14:34.165Z,2.91
2016-12-16T04:17:27.886Z,2.88
2016-12-16T04:20:21.558Z,2.85
2016-12-16T04:23:15.317Z,2.82
2016-12-16T04:29:02.705Z,2.78
2016-12-16T04:31:56.501Z,2.74
2016-12-16T04:34:50.242Z,2.71
2016-12-16T04:37:45.012Z,2.69
2016-12-16T04:40:37.644Z,2.67
2016-12-16T04:43:32.635Z,2.64
2016-12-16T04:49:20.086Z,2.60
2016-12-16T04:52:12.750Z,2.59
2016-12-16T04:55:06.423Z,2.57
2016-12-16T04:58:00.122Z,2.55
2016-12-16T05:00:53.800Z,2.53
2016-12-16T05:06:41.286Z,2.48
2016-12-16T05:12:28.791Z,2.47
2016-12-16T05:15:22.399Z,2.47
2016-12-16T05:18:16.182Z,2.45
2016-12-16T05:21:09.806Z,2.43
2016-12-16T05:26:57.192Z,2.37
2016-12-16T05:29:50.838Z,2.35
2016-12-16T05:41:25.519Z,2.30
2016-12-16T05:44:19.223Z,2.31
2016-12-16T05:47:12.904Z,2.30
2016-12-16T05:50:06.589Z,2.28
2016-12-16T05:53:00.239Z,2.26
2016-12-16T05:55:55.359Z,2.24
2016-12-16T05:58:49.099Z,2.24
2016-12-16T06:01:41.809Z,2.24
2016-12-16T06:10:23.008Z,2.20
2016-12-16T06:13:16.675Z,2.18
2016-12-16T06:19:04.072Z,2.14
2016-12-16T06:21:57.783Z,2.13
2016-12-16T06:24:51.458Z,2.13
2016-12-16T06:27:45.130Z,2.12
2016-12-16T06:30:38.863Z,2.12
2016-12-16T06:33:32.414Z,2.12
2016-12-16T06:36:26.101Z,2.11
2016-12-16T06:39:19.864Z,2.10
2016-12-16T06:42:13.415Z,2.09
2016-12-16T06:45:08.108Z,2.10
2016-12-16T06:48:00.926Z,2.08
2016-12-16T06:50:54.444Z,2.07
2016-12-16T06:53:48.139Z,2.07
2016-12-16T06:56:42.840Z,2.05
2016-12-16T06:59:35.483Z,2.05
2016-12-16T07:02:29.187Z,2.05
2016-12-16T07:05:22.790Z,2.05
2016-12-16T07:08:16.502Z,2.04
2016-12-16T07:16:57.663Z,2.04
2016-12-16T07:19:51.254Z,2.04
2016-12-16T07:25:38.628Z,2.03
2016-12-16T07:28:33.502Z,2.03
2016-12-16T07:34:19.894Z,2.04
2016-12-16T07:37:13.617Z,2.05
2016-12-16T07:40:07.206Z,2.07
2016-12-16T07:43:00.947Z,2.09
2016-12-16T07:51:42.042Z,2.13
2016-12-16T07:54:35.791Z,2.14
2016-12-16T07:57:29.339Z,2.16
2016-12-16T08:00:23.022Z,2.20
2016-12-16T08:03:16.723Z,2.27
2016-12-16T08:06:10.384Z,2.33
2016-12-16T08:09:04.149Z,2.41
2016-12-16T08:11:57.948Z,2.53
2016-12-16T08:14:51.675Z,2.66
2016-12-16T08:17:45.637Z,2.76
2016-12-16T08:23:33.355Z,2.94
2016-12-16T08:26:27.145Z,3.06
2016-12-16T08:29:20.935Z,3.19
2016-12-16T08:32:15.612Z,3.25
2016-12-16T08:35:08.554Z,3.33
2016-12-16T08:38:02.301Z,3.42
2016-12-16T08:46:44.886Z,3.82
2016-12-16T08:52:31.673Z,4.16
2016-12-16T08:55:25.529Z,4.30
2016-12-16T08:58:19.440Z,4.31
2016-12-16T09:01:13.441Z,4.38
2016-12-16T09:04:07.374Z,4.49
2016-12-16T09:07:01.233Z,4.48
2016-12-16T09:09:55.098Z,4.38
2016-12-16T09:12:48.982Z,4.36
2016-12-16T09:15:43.893Z,4.44
2016-12-16T09:18:36.851Z,4.56
2016-12-16T09:24:24.560Z,4.56
2016-12-16T09:30:12.414Z,4.81
2016-12-16T09:36:00.274Z,5.32
2016-12-16T09:44:42.439Z,5.96
2016-12-16T09:50:30.533Z,6.29
2016-12-16T09:53:24.677Z,6.46
2016-12-16T09:56:18.755Z,6.60
2016-12-16T09:59:12.762Z,6.68
2016-12-16T10:02:06.820Z,6.65
2016-12-16T10:05:00.969Z,6.67
2016-12-16T10:10:49.091Z,6.52
2016-12-16T10:13:43.066Z,6.41
2016-12-16T10:16:37.118Z,6.45
2016-12-16T10:19:31.205Z,6.40
2016-12-16T10:25:19.100Z,6.20
2016-12-16T10:28:13.110Z,6.09
2016-12-16T10:31:07.086Z,6.23
2016-12-16T10:34:01.058Z,6.21
2016-12-16T10:36:54.969Z,6.17
2016-12-16T10:39:48.873Z,6.16
2016-12-16T10:45:36.796Z,6.03
2016-12-16T10:48:30.684Z,6.00
2016-12-16T10:54:18.319Z,5.67
2016-12-16T10:57:12.216Z,5.52
2016-12-16T11:00:06.016Z,5.38
2016-12-16T11:02:59.873Z,5.31
2016-12-16T11:08:48.409Z,5.14
2016-12-16T11:11:41.316Z,5.06
2016-12-16T11:14:35.169Z,4.97
2016-12-16T11:17:28.969Z,4.91
2016-12-16T11:20:22.971Z,4.84
2016-12-16T11:26:10.842Z,4.76
2016-12-16T11:29:04.636Z,4.71
2016-12-16T11:31:58.474Z,4.67
2016-12-16T11:34:52.311Z,4.61
2016-12-16T11:37:46.247Z,4.59
2016-12-16T11:40:40.101Z,4.57
2016-12-16T11:43:33.951Z,4.57
2016-12-16T11:46:28.340Z,4.56
2016-12-16T11:49:22.187Z,4.54
2016-12-16T11:52:15.916Z,4.51
2016-12-16T11:55:09.700Z,4.51
2016-12-16T12:00:57.417Z,4.53
2016-12-16T12:03:51.173Z,4.51
2016-12-16T12:06:44.991Z,4.44
2016-12-16T12:09:38.757Z,4.38
2016-12-16T12:18:20.530Z,4.39
2016-12-16T12:21:14.361Z,4.38
2016-12-16T12:24:08.175Z,4.40
2016-12-16T12:27:01.906Z,4.42
2016-12-16T12:32:49.684Z,4.44
2016-12-16T12:35:43.680Z,4.44
2016-12-16T12:38:37.395Z,4.44
2016-12-16T12:41:31.242Z,4.47
2016-12-16T12:44:25.134Z,4.47
2016-12-16T12:50:12.970Z,4.43
2016-12-16T12:53:06.787Z,4.43
2016-12-16T12:56:00.714Z,4.43
2016-12-16T12:58:54.469Z,4.43
2016-12-16T13:01:48.287Z,4.37
2016-12-16T13:04:42.097Z,4.34
2016-12-16T13:07:36.019Z,4.33
2016-12-16T13:13:23.660Z,4.33
2016-12-16T13:19:11.463Z,4.34
2016-12-16T13:24:59.142Z,4.34
2016-12-16T13:27:52.913Z,4.35
2016-12-16T13:30:46.821Z,4.35
2016-12-16T13:33:40.676Z,4.35
2016-12-16T13:36:34.594Z,4.35
2016-12-16T13:39:29.711Z,4.35
2016-12-16T13:42:22.461Z,4.33
2016-12-16T13:45:16.310Z,4.30
2016-12-16T13:51:04.005Z,4.26
2016-12-16T13:53:57.886Z,4.25
2016-12-16T13:56:51.803Z,4.24
2016-12-16T13:59:45.658Z,4.22
2016-12-16T14:05:33.436Z,4.17
2016-12-16T14:08:27.209Z,4.13
2016-12-16T14:11:21.033Z,4.10
2016-12-16T14:17:08.864Z,4.05
2016-12-16T14:20:02.583Z,4.02
2016-12-16T14:22:56.393Z,4.00
2016-12-16T14:28:44.034Z,3.96
2016-12-16T14:31:37.764Z,3.93
2016-12-16T14:34:31.633Z,3.90
2016-12-16T14:37:25.887Z,3.88
2016-12-16T14:40:19.603Z,3.85
2016-12-16T14:46:07.785Z,3.80
2016-12-16T14:49:02.408Z,3.77
2016-12-16T14:51:55.209Z,3.73
2016-12-16T14:54:50.013Z,3.70
2016-12-16T14:57:42.760Z,3.66
2016-12-16T15:03:30.308Z,3.61
2016-12-16T15:06:24.082Z,3.58
2016-12-16T15:09:17.877Z,3.55
2016-12-16T15:12:11.622Z,3.52
2016-12-16T15:15:05.233Z,3.49
2016-12-16T15:17:58.895Z,3.48
2016-12-16T15:23:46.334Z,3.41
2016-12-16T15:26:40.070Z,3.39
2016-12-16T15:29:33.814Z,3.37
2016-12-16T15:35:21.061Z,3.33
2016-12-16T15:38:14.809Z,3.31
2016-12-16T15:41:08.586Z,3.30
2016-12-16T15:44:02.336Z,3.29
2016-12-16T15:46:56.011Z,3.28
2016-12-16T15:49:49.759Z,3.28
2016-12-16T15:52:43.489Z,3.26
2016-12-16T15:58:30.894Z,3.23
2016-12-16T16:01:24.672Z,3.21
2016-12-16T16:07:12.160Z,3.16
2016-12-16T16:15:53.356Z,3.11
2016-12-16T16:18:47.139Z,3.08
2016-12-16T16:21:40.909Z,3.05
2016-12-16T16:24:34.557Z,3.04
2016-12-16T16:27:28.347Z,3.00
2016-12-16T16:33:15.702Z,2.98
2016-12-16T16:36:09.510Z,2.97
2016-12-16T16:39:03.200Z,2.96
2016-12-16T16:44:50.606Z,2.94
2016-12-16T16:47:44.265Z,2.92
2016-12-16T16:50:37.903Z,2.90
2016-12-16T16:53:31.546Z,2.89
2016-12-16T16:56:25.144Z,2.86
2016-12-16T17:02:12.440Z,2.81
2016-12-16T17:05:06.087Z,2.78
2016-12-16T17:07:59.720Z,2.76
2016-12-16T17:10:53.373Z,2.77
2016-12-16T17:13:47.067Z,2.78
2016-12-16T17:16:41.281Z,2.76
2016-12-16T17:19:34.923Z,2.73
2016-12-16T17:22:28.772Z,2.70
2016-12-16T17:25:22.294Z,2.70
2016-12-16T17:28:16.378Z,2.69
2016-12-16T17:31:10.203Z,2.67
2016-12-16T17:34:04.775Z,2.65
2016-12-16T17:36:57.384Z,2.62
2016-12-16T17:39:51.102Z,2.63
2016-12-16T17:42:44.817Z,2.59
2016-12-16T17:45:38.487Z,2.56
2016-12-16T17:48:32.138Z,2.54
2016-12-16T17:54:19.408Z,2.50
2016-12-16T17:57:13.089Z,2.51
2016-12-16T18:00:06.701Z,2.52
2016-12-16T18:03:00.383Z,2.47
2016-12-16T18:05:53.971Z,2.46
2016-12-16T18:08:47.594Z,2.44
2016-12-16T18:11:41.240Z,2.43
2016-12-16T18:14:35.908Z,2.41
2016-12-16T18:17:28.501Z,2.39
2016-12-16T18:23:15.870Z,2.31
2016-12-16T18:26:09.508Z,2.28
2016-12-16T18:29:03.068Z,2.28
2016-12-16T18:31:57.682Z,2.27
2016-12-16T18:34:50.405Z,2.25
2016-12-16T18:40:37.849Z,2.21
2016-12-16T18:43:31.494Z,2.22
2016-12-16T18:52:12.598Z,2.23
2016-12-16T18:55:06.351Z,2.21
2016-12-16T19:00:54.662Z,2.18
2016-12-16T19:03:47.336Z,2.18
2016-12-16T19:06:40.877Z,2.17
2016-12-16T19:09:34.521Z,2.16
2016-12-16T19:12:28.135Z,2.13
2016-12-16T19:15:21.789Z,2.11
2016-12-16T19:18:16.471Z,2.11
2016-12-16T19:24:02.758Z,2.12
2016-12-16T19:26:56.375Z,2.10
2016-12-16T19:29:50.020Z,2.14
2016-12-16T19:32:43.681Z,2.14
2016-12-16T19:35:37.322Z,2.12
2016-12-16T19:38:30.953Z,2.13
2016-12-16T19:44:18.311Z,2.11
2016-12-16T19:47:11.877Z,2.08
2016-12-16T19:50:05.537Z,2.07
2016-12-16T19:52:59.110Z,2.03
2016-12-16T19:55:52.754Z,2.01
2016-12-16T20:01:40.234Z,1.97
2016-12-16T20:07:27.697Z,2.01
2016-12-16T20:10:21.246Z,1.98
2016-12-16T20:13:14.786Z,1.98
2016-12-16T20:16:08.468Z,1.98
2016-12-16T20:19:02.034Z,1.99
2016-12-16T20:21:55.597Z,1.97
2016-12-16T20:24:49.212Z,1.96
2016-12-16T20:27:42.864Z,1.92
2016-12-16T20:30:36.512Z,1.89
2016-12-16T20:33:30.035Z,1.91
2016-12-16T20:36:23.554Z,1.91
2016-12-16T20:39:17.190Z,1.90
2016-12-16T20:42:10.862Z,1.88
2016-12-16T20:45:04.475Z,1.77
2016-12-16T20:47:58.068Z,1.74
2016-12-16T20:50:51.727Z,1.72
2016-12-16T20:53:45.338Z,1.68
2016-12-16T20:56:39.902Z,1.67
2016-12-16T20:59:32.402Z,1.64
2016-12-16T21:02:26.453Z,1.60
2016-12-16T21:05:20.564Z,1.56
2016-12-16T21:08:14.174Z,1.53
2016-12-16T21:11:07.804Z,1.51
2016-12-16T21:14:01.429Z,1.50
2016-12-16T21:16:55.119Z,1.47
2016-12-16T21:19:48.610Z,1.43
2016-12-16T21:22:43.166Z,1.39
2016-12-16T21:25:35.769Z,1.36
2016-12-16T21:28:29.410Z,1.30
2016-12-16T21:31:22.901Z,1.24
2016-12-16T21:34:16.396Z,1.19
2016-12-16T21:37:09.933Z,1.15
2016-12-16T21:40:03.509Z,1.12
2016-12-16T21:42:57.174Z,1.08
2016-12-16T21:45:50.745Z,1.08
2016-12-16T21:48:45.710Z,1.11
2016-12-16T21:51:38.276Z,1.12
2016-12-16T21:57:25.443Z,1.09
2016-12-16T22:03:13.627Z,0.99
2016-12-16T22:06:06.315Z,0.99
2016-12-16T22:08:59.887Z,0.98
2016-12-16T22:14:47.921Z,1.01
2016-12-16T22:17:41.604Z,1.02
2016-12-16T22:20:34.126Z,1.01
2016-12-16T22:23:27.735Z,0.97
2016-12-16T22:26:21.302Z,0.93
2016-12-16T22:32:08.266Z,0.93
2016-12-16T22:35:01.808Z,0.97
2016-12-16T22:37:55.384Z,0.99
2016-12-16T22:40:48.954Z,1.00
2016-12-16T22:46:36.180Z,0.98
2016-12-16T22:49:29.794Z,0.97
2016-12-16T22:52:23.328Z,0.94
2016-12-16T22:58:10.436Z,0.94
2016-12-16T23:01:04.139Z,0.94
2016-12-16T23:03:57.629Z,0.92
2016-12-16T23:06:51.229Z,0.92
2016-12-16T23:09:44.816Z,0.87
2016-12-16T23:12:38.299Z,0.82
2016-12-16T23:15:31.885Z,0.79
2016-12-16T23:18:25.477Z,0.78
2016-12-16T23:27:06.256Z,0.76
2016-12-16T23:29:59.967Z,0.74
2016-12-16T23:38:40.525Z,0.72
2016-12-16T23:41:34.514Z,0.72
2016-12-16T23:44:28.165Z,0.70
2016-12-16T23:50:15.644Z,0.73
2016-12-16T23:53:10.204Z,0.70
2016-12-16T23:56:02.930Z,0.67
2016-12-16T23:58:57.539Z,0.69
